createdAt,value
2023-03-17T00:01:37.263Z,19.20
2023-03-17T00:04:12.191Z,23.58
2023-03-17T00:06:46.497Z,19.10
2023-03-17T00:09:21.328Z,22.23
2023-03-17T00:11:54.630Z,22.67
2023-03-17T00:14:28.273Z,18.73
2023-03-17T00:17:03.037Z,16.30
2023-03-17T00:19:37.026Z,20.13
2023-03-17T00:22:17.739Z,23.60
2023-03-17T00:24:51.327Z,20.63
2023-03-17T00:27:25.459Z,22.38
2023-03-17T00:29:58.718Z,21.10
2023-03-17T00:32:33.422Z,20.48
2023-03-17T00:35:16.554Z,20.60
2023-03-17T00:37:52.413Z,20.58
2023-03-17T00:40:29.490Z,23.15
2023-03-17T00:43:03.286Z,22.30
2023-03-17T00:45:36.850Z,24.55
2023-03-17T00:48:15.934Z,22.30
2023-03-17T00:50:51.551Z,21.45
2023-03-17T00:53:24.906Z,21.50
2023-03-17T00:55:58.649Z,22.73
2023-03-17T00:58:34.204Z,20.92
2023-03-17T01:01:08.691Z,22.73
2023-03-17T01:03:43.423Z,22.23
2023-03-17T01:06:17.672Z,21.63
2023-03-17T01:08:52.271Z,22.88
2023-03-17T01:11:26.234Z,23.60
2023-03-17T01:13:59.745Z,19.98
2023-03-17T01:16:36.081Z,21.45
2023-03-17T01:19:12.054Z,18.38
2023-03-17T01:21:45.661Z,25.38
2023-03-17T01:24:19.649Z,19.30
2023-03-17T01:26:52.919Z,22.33
2023-03-17T01:29:27.089Z,20.75
2023-03-17T01:32:00.465Z,20.95
2023-03-17T01:34:35.217Z,22.05
2023-03-17T01:37:09.717Z,20.52
2023-03-17T01:39:43.122Z,20.48
2023-03-17T01:42:17.609Z,21.77
2023-03-17T01:44:59.573Z,23.42
2023-03-17T01:47:33.348Z,19.08
2023-03-17T01:50:10.796Z,20.52
2023-03-17T01:52:45.018Z,20.02
2023-03-17T01:55:20.583Z,22.13
2023-03-17T01:57:56.473Z,17.10
2023-03-17T02:00:31.047Z,21.23
2023-03-17T02:03:06.083Z,23.52
2023-03-17T02:05:41.343Z,17.65
2023-03-17T02:08:16.440Z,21.48
2023-03-17T02:10:52.459Z,16.50
2023-03-17T02:13:27.007Z,23.15
2023-03-17T02:16:00.449Z,17.55
2023-03-17T02:18:34.173Z,40.78
2023-03-17T02:23:57.310Z,25.35
2023-03-17T02:26:34.437Z,20.30
2023-03-17T02:29:09.070Z,17.58
2023-03-17T02:31:42.663Z,20.48
2023-03-17T02:34:16.999Z,17.85
2023-03-17T02:36:50.361Z,15.70
2023-03-17T02:39:25.567Z,15.27
2023-03-17T02:41:59.168Z,19.90
2023-03-17T02:44:32.970Z,24.10
2023-03-17T02:49:41.882Z,20.13
2023-03-17T02:52:15.233Z,15.95
2023-03-17T02:54:50.203Z,25.90
2023-03-17T02:57:23.482Z,15.68
2023-03-17T02:59:56.775Z,17.75
2023-03-17T03:02:30.046Z,21.13
2023-03-17T03:05:03.617Z,15.73
2023-03-17T03:07:37.047Z,22.58
2023-03-17T03:10:12.839Z,16.58
2023-03-17T03:12:46.153Z,15.65
2023-03-17T03:15:19.627Z,16.65
2023-03-17T03:17:53.147Z,16.50
2023-03-17T03:20:26.470Z,15.77
2023-03-17T03:22:59.765Z,19.58
2023-03-17T03:25:34.746Z,15.57
2023-03-17T03:28:10.033Z,16.85
2023-03-17T03:30:44.736Z,19.42
2023-03-17T03:33:18.671Z,20.83
2023-03-17T03:35:52.020Z,19.20
2023-03-17T03:38:25.316Z,18.35
2023-03-17T03:41:00.030Z,17.50
2023-03-17T03:43:33.340Z,20.63
2023-03-17T03:46:06.890Z,17.13
2023-03-17T03:48:40.189Z,19.25
2023-03-17T03:51:13.500Z,16.65
2023-03-17T03:53:48.260Z,15.52
2023-03-17T03:56:22.974Z,19.55
2023-03-17T03:58:57.205Z,21.95
2023-03-17T04:01:30.499Z,16.40
2023-03-17T04:04:03.793Z,17.40
2023-03-17T04:06:37.087Z,16.92
2023-03-17T04:09:10.438Z,21.85
2023-03-17T04:11:45.146Z,18.52
2023-03-17T04:14:18.760Z,15.30
2023-03-17T04:16:52.056Z,19.27
2023-03-17T04:19:25.401Z,13.73
2023-03-17T04:21:58.783Z,13.95
2023-03-17T04:24:32.100Z,17.25
2023-03-17T04:27:07.894Z,16.85
2023-03-17T04:29:41.904Z,20.08
2023-03-17T04:32:15.715Z,17.08
2023-03-17T04:37:22.114Z,13.82
2023-03-17T04:39:55.884Z,15.48
2023-03-17T04:45:04.038Z,14.55
2023-03-17T04:47:37.856Z,19.75
2023-03-17T04:50:12.415Z,20.70
2023-03-17T04:52:45.744Z,24.75
2023-03-17T04:55:19.256Z,15.57
2023-03-17T04:57:53.932Z,16.55
2023-03-17T05:00:28.038Z,18.05
2023-03-17T05:03:01.523Z,23.70
2023-03-17T05:05:35.993Z,17.63
2023-03-17T05:08:09.305Z,16.50
2023-03-17T05:10:42.580Z,19.80
2023-03-17T05:13:17.240Z,18.63
2023-03-17T05:15:51.530Z,13.75
2023-03-17T05:18:27.572Z,15.63
2023-03-17T05:21:01.034Z,16.70
2023-03-17T05:23:34.548Z,16.52
2023-03-17T05:26:07.871Z,15.85
2023-03-17T05:28:42.567Z,19.05
2023-03-17T05:31:15.855Z,13.88
2023-03-17T05:33:49.203Z,15.43
2023-03-17T05:36:22.657Z,12.27
2023-03-17T05:38:56.429Z,14.65
2023-03-17T05:44:04.795Z,10.48
2023-03-17T05:46:38.210Z,14.52
2023-03-17T05:49:11.530Z,20.88
2023-03-17T05:51:44.960Z,18.70
2023-03-17T05:54:18.333Z,20.23
2023-03-17T05:56:51.655Z,20.17
2023-03-17T05:59:26.354Z,18.17
2023-03-17T06:01:59.657Z,19.58
2023-03-17T06:04:33.662Z,18.13
2023-03-17T06:07:07.442Z,19.33
2023-03-17T06:12:13.905Z,21.35
2023-03-17T06:14:48.595Z,18.83
2023-03-17T06:17:21.919Z,27.88
2023-03-17T06:19:55.188Z,25.40
2023-03-17T06:22:28.767Z,21.35
2023-03-17T06:25:02.149Z,19.70
2023-03-17T06:27:35.537Z,28.00
2023-03-17T06:30:12.182Z,22.15
2023-03-17T06:32:45.829Z,25.92
2023-03-17T06:35:19.352Z,32.85
2023-03-17T06:37:53.258Z,26.33
2023-03-17T06:42:59.882Z,24.40
2023-03-17T06:45:34.809Z,26.35
2023-03-17T06:48:08.215Z,28.17
2023-03-17T06:50:41.670Z,23.20
2023-03-17T06:53:15.056Z,18.08
2023-03-17T06:55:49.258Z,16.63
2023-03-17T06:58:22.960Z,21.17
2023-03-17T07:00:57.658Z,19.92
2023-03-17T07:03:31.143Z,29.90
2023-03-17T07:06:04.493Z,29.15
2023-03-17T07:08:37.850Z,29.38
2023-03-17T07:11:11.199Z,22.77
2023-03-17T07:13:45.327Z,19.40
2023-03-17T07:16:21.064Z,25.13
2023-03-17T07:18:54.431Z,23.83
2023-03-17T07:21:27.746Z,20.38
2023-03-17T07:24:01.640Z,23.35
2023-03-17T07:26:35.038Z,19.55
2023-03-17T07:29:08.394Z,20.67
2023-03-17T07:31:44.015Z,21.10
2023-03-17T07:34:17.861Z,20.00
2023-03-17T07:39:24.409Z,18.17
2023-03-17T07:41:57.809Z,18.67
2023-03-17T07:44:33.262Z,16.85
2023-03-17T07:47:08.220Z,20.33
2023-03-17T07:49:42.527Z,19.88
2023-03-17T07:52:16.239Z,16.30
2023-03-17T07:54:51.690Z,12.70
2023-03-17T07:57:25.108Z,16.48
2023-03-17T07:59:58.832Z,18.73
2023-03-17T08:05:07.768Z,16.85
2023-03-17T08:07:41.328Z,17.95
2023-03-17T08:10:14.818Z,16.65
2023-03-17T08:12:51.870Z,14.57
2023-03-17T08:15:25.261Z,18.10
2023-03-17T08:18:00.903Z,15.77
2023-03-17T08:20:34.927Z,12.65
2023-03-17T08:23:08.648Z,11.82
2023-03-17T08:25:41.959Z,12.73
2023-03-17T08:28:16.412Z,10.60
2023-03-17T08:30:50.781Z,14.95
2023-03-17T08:33:25.615Z,12.63
2023-03-17T08:35:59.132Z,11.18
2023-03-17T08:41:08.032Z,11.80
2023-03-17T08:43:42.739Z,16.45
2023-03-17T08:46:19.109Z,12.25
2023-03-17T08:48:56.350Z,9.38
2023-03-17T08:51:34.305Z,9.10
2023-03-17T08:54:08.744Z,9.00
2023-03-17T08:56:42.223Z,39.42
2023-03-17T08:59:16.985Z,145.70
2023-03-17T09:01:50.625Z,447.85
2023-03-17T09:04:25.969Z,420.77
2023-03-17T09:07:03.611Z,402.02
2023-03-17T09:09:38.034Z,380.55
2023-03-17T09:12:11.679Z,350.80
2023-03-17T09:14:46.364Z,284.67
2023-03-17T09:17:20.795Z,185.43
2023-03-17T09:19:55.501Z,125.38
2023-03-17T09:22:28.900Z,181.65
2023-03-17T09:25:02.263Z,131.32
2023-03-17T09:27:36.376Z,126.93
2023-03-17T09:30:10.881Z,114.50
2023-03-17T09:32:45.008Z,109.55
2023-03-17T09:35:20.684Z,114.30
2023-03-17T09:37:54.000Z,86.53
2023-03-17T09:40:33.745Z,84.53
2023-03-17T09:43:16.894Z,79.30
2023-03-17T09:45:50.625Z,68.72
2023-03-17T09:48:46.436Z,67.20
2023-03-17T09:51:21.414Z,55.88
2023-03-17T09:53:59.951Z,60.50
2023-03-17T09:56:35.385Z,49.83
2023-03-17T09:59:21.535Z,48.60
2023-03-17T10:01:54.938Z,53.83
2023-03-17T10:04:28.979Z,52.58
2023-03-17T10:07:05.620Z,42.20
2023-03-17T10:09:46.900Z,39.83
2023-03-17T10:12:28.940Z,40.88
2023-03-17T10:15:04.621Z,37.90
2023-03-17T10:17:42.228Z,38.28
2023-03-17T10:20:18.539Z,31.45
2023-03-17T10:22:57.968Z,32.95
2023-03-17T10:25:34.009Z,32.78
2023-03-17T10:28:16.061Z,28.73
2023-03-17T10:30:49.423Z,29.60
2023-03-17T10:33:23.142Z,23.88
2023-03-17T10:35:56.676Z,24.00
2023-03-17T10:38:31.511Z,28.65
2023-03-17T10:41:09.908Z,29.30
2023-03-17T10:43:47.144Z,27.77
2023-03-17T10:46:23.270Z,26.35
2023-03-17T10:48:58.786Z,21.27
2023-03-17T10:51:34.071Z,21.02
2023-03-17T10:54:12.833Z,20.55
2023-03-17T10:56:49.825Z,19.40
2023-03-17T11:02:18.110Z,18.63
2023-03-17T11:04:54.728Z,19.98
2023-03-17T11:07:31.303Z,25.65
2023-03-17T11:10:18.378Z,21.63
2023-03-17T11:13:00.534Z,20.65
2023-03-17T11:15:36.780Z,18.73
2023-03-17T11:18:16.833Z,14.50
2023-03-17T11:21:00.956Z,11.57
2023-03-17T11:26:37.345Z,13.90
2023-03-17T11:29:22.368Z,13.25
2023-03-17T11:32:03.331Z,17.77
2023-03-17T11:34:48.978Z,13.02
2023-03-17T11:37:37.566Z,9.88
2023-03-17T11:40:21.186Z,16.88
2023-03-17T11:43:11.073Z,10.13
2023-03-17T11:45:51.024Z,12.10
2023-03-17T11:48:34.465Z,9.25
2023-03-17T11:51:15.710Z,12.77
2023-03-17T11:54:17.039Z,10.63
2023-03-17T11:56:54.634Z,12.45
2023-03-17T11:59:36.239Z,6.55
2023-03-17T12:02:21.552Z,7.32
2023-03-17T12:04:58.690Z,14.05
2023-03-17T12:07:34.829Z,11.63
2023-03-17T12:10:17.382Z,8.82
2023-03-17T12:12:54.461Z,13.55
2023-03-17T12:15:33.443Z,9.07
2023-03-17T12:18:13.274Z,10.98
2023-03-17T12:20:52.025Z,13.40
2023-03-17T12:23:33.973Z,21.10
2023-03-17T12:26:12.884Z,15.85
2023-03-17T12:28:52.220Z,17.73
2023-03-17T12:31:32.640Z,21.13
2023-03-17T12:34:11.356Z,10.57
2023-03-17T12:36:45.331Z,17.67
2023-03-17T12:39:22.300Z,10.35
2023-03-17T12:42:17.740Z,14.48
2023-03-17T12:45:22.364Z,16.50
2023-03-17T12:51:06.662Z,8.48
2023-03-17T12:53:42.339Z,12.07
2023-03-17T12:56:21.762Z,15.25
2023-03-17T12:59:01.344Z,7.90
2023-03-17T13:01:38.592Z,12.52
2023-03-17T13:04:26.924Z,10.35
2023-03-17T13:07:07.343Z,10.50
2023-03-17T13:09:47.568Z,12.68
2023-03-17T13:12:57.737Z,12.85
2023-03-17T13:15:52.274Z,9.25
2023-03-17T13:18:48.977Z,8.52
2023-03-17T13:21:28.460Z,7.45
2023-03-17T13:24:47.714Z,12.18
2023-03-17T13:27:46.489Z,6.93
2023-03-17T13:30:52.971Z,8.43
2023-03-17T13:33:32.574Z,9.32
2023-03-17T13:36:19.562Z,8.85
2023-03-17T13:39:24.905Z,9.23
2023-03-17T13:42:18.606Z,7.72
2023-03-17T13:45:33.175Z,14.25
2023-03-17T13:48:36.449Z,16.17
2023-03-17T13:51:20.631Z,11.43
2023-03-17T13:56:48.558Z,10.30
2023-03-17T13:59:22.976Z,13.65
2023-03-17T14:02:00.789Z,14.30
2023-03-17T14:04:44.781Z,17.52
2023-03-17T14:07:22.389Z,12.95
2023-03-17T14:10:00.403Z,13.30
2023-03-17T14:12:44.980Z,11.55
2023-03-17T14:15:23.959Z,14.15
2023-03-17T14:18:03.301Z,15.13
2023-03-17T14:20:36.862Z,15.10
2023-03-17T14:23:10.776Z,14.13
2023-03-17T14:25:45.393Z,16.83
2023-03-17T14:28:27.140Z,12.70
2023-03-17T14:31:03.433Z,9.65
2023-03-17T14:33:39.688Z,9.85
2023-03-17T14:36:14.740Z,12.60
2023-03-17T14:38:50.461Z,18.83
2023-03-17T14:41:26.070Z,21.85
2023-03-17T14:44:02.116Z,19.05
2023-03-17T14:46:38.168Z,12.32
2023-03-17T14:49:17.919Z,18.52
2023-03-17T14:51:54.255Z,9.52
2023-03-17T14:54:31.644Z,16.88
2023-03-17T14:57:08.206Z,14.88
2023-03-17T14:59:44.397Z,13.48
2023-03-17T15:02:23.342Z,9.48
2023-03-17T15:04:59.850Z,12.35
2023-03-17T15:07:39.336Z,19.38
2023-03-17T15:10:16.494Z,13.02
2023-03-17T15:12:50.618Z,15.32
2023-03-17T15:15:27.790Z,10.95
2023-03-17T15:18:05.424Z,14.45
2023-03-17T15:20:38.790Z,13.60
2023-03-17T15:23:18.335Z,10.02
2023-03-17T15:25:55.955Z,9.00
2023-03-17T15:28:33.027Z,10.30
2023-03-17T15:31:13.555Z,12.10
2023-03-17T15:33:46.939Z,10.18
2023-03-17T15:36:31.824Z,9.27
2023-03-17T15:39:06.662Z,9.52
2023-03-17T15:44:13.130Z,10.48
2023-03-17T15:46:48.039Z,9.48
2023-03-17T15:49:24.302Z,11.80
2023-03-17T15:51:59.173Z,14.00
2023-03-17T15:54:32.548Z,14.55
2023-03-17T15:57:06.198Z,9.13
2023-03-17T15:59:39.732Z,8.60
2023-03-17T16:02:31.806Z,4.97
2023-03-17T16:05:17.054Z,6.93
2023-03-17T16:07:51.609Z,14.15
2023-03-17T16:10:26.413Z,9.38
2023-03-17T16:13:00.199Z,11.30
2023-03-17T16:18:14.837Z,8.68
2023-03-17T16:20:51.139Z,5.47
2023-03-17T16:23:27.130Z,8.30
2023-03-17T16:26:13.814Z,6.13
2023-03-17T16:28:49.429Z,7.65
2023-03-17T16:31:25.518Z,7.82
2023-03-17T16:34:00.373Z,8.32
2023-03-17T16:36:33.877Z,7.40
2023-03-17T16:39:11.219Z,6.90
2023-03-17T16:41:45.645Z,5.60
2023-03-17T16:44:21.883Z,8.43
2023-03-17T16:46:55.270Z,4.32
2023-03-17T16:49:30.030Z,5.88
2023-03-17T16:52:03.766Z,5.05
2023-03-17T16:57:12.770Z,5.38
2023-03-17T16:59:46.098Z,4.20
2023-03-17T17:02:19.421Z,3.78
2023-03-17T17:04:54.307Z,4.53
2023-03-17T17:07:27.675Z,5.95
2023-03-17T17:10:01.170Z,5.68
2023-03-17T17:12:34.717Z,5.43
2023-03-17T17:15:10.233Z,4.85
2023-03-17T17:17:46.035Z,4.18
2023-03-17T17:20:23.722Z,5.28
2023-03-17T17:22:57.649Z,5.72
2023-03-17T17:25:32.061Z,5.82
2023-03-17T17:28:06.094Z,5.43
2023-03-17T17:30:43.005Z,3.92
2023-03-17T17:33:16.980Z,6.00
2023-03-17T17:35:53.284Z,6.05
2023-03-17T17:38:29.021Z,6.78
2023-03-17T17:41:05.853Z,4.90
2023-03-17T17:43:39.616Z,3.92
2023-03-17T17:48:47.462Z,4.45
2023-03-17T17:51:22.194Z,4.68
2023-03-17T17:53:55.693Z,5.60
2023-03-17T17:56:29.022Z,4.90
2023-03-17T17:59:02.318Z,6.00
2023-03-17T18:01:35.967Z,5.43
2023-03-17T18:06:44.453Z,14.23
2023-03-17T18:09:18.212Z,7.13
2023-03-17T18:11:51.527Z,5.68
2023-03-17T18:14:24.920Z,16.15
2023-03-17T18:16:58.370Z,13.98
2023-03-17T18:19:32.049Z,15.32
2023-03-17T18:22:06.838Z,12.88
2023-03-17T18:24:40.337Z,13.20
2023-03-17T18:27:15.754Z,17.50
2023-03-17T18:29:49.579Z,15.95
2023-03-17T18:35:03.851Z,13.55
2023-03-17T18:37:38.940Z,13.02
2023-03-17T18:40:17.261Z,14.98
2023-03-17T18:42:51.927Z,11.95
2023-03-17T18:45:25.262Z,11.68
2023-03-17T18:47:58.814Z,11.48
2023-03-17T18:50:33.569Z,14.82
2023-03-17T18:53:08.595Z,14.77
2023-03-17T18:55:42.749Z,9.80
2023-03-17T18:58:16.383Z,14.02
2023-03-17T19:00:50.665Z,15.18
2023-03-17T19:03:24.436Z,23.25
2023-03-17T19:05:58.048Z,13.32
2023-03-17T19:08:32.847Z,15.80
2023-03-17T19:11:07.552Z,10.25
2023-03-17T19:13:41.893Z,16.00
2023-03-17T19:16:16.742Z,18.00
2023-03-17T19:18:51.477Z,13.40
2023-03-17T19:21:26.174Z,19.42
2023-03-17T19:24:02.080Z,9.98
2023-03-17T19:26:35.656Z,14.00
2023-03-17T19:29:09.974Z,13.32
2023-03-17T19:31:43.368Z,13.27
2023-03-17T19:34:17.165Z,13.35
2023-03-17T19:39:28.150Z,16.17
2023-03-17T19:42:01.554Z,10.82
2023-03-17T19:44:35.028Z,7.50
2023-03-17T19:47:09.029Z,9.60
2023-03-17T19:49:42.469Z,14.73
2023-03-17T19:52:15.898Z,12.30
2023-03-17T19:54:50.882Z,8.68
2023-03-17T19:57:24.254Z,10.00
2023-03-17T19:59:57.696Z,8.68
2023-03-17T20:02:31.668Z,9.15
2023-03-17T20:05:05.906Z,10.30
2023-03-17T20:07:39.470Z,10.75
2023-03-17T20:10:14.593Z,6.45
2023-03-17T20:12:47.916Z,6.95
2023-03-17T20:15:21.406Z,9.43
2023-03-17T20:17:55.991Z,7.13
2023-03-17T20:20:29.866Z,7.95
2023-03-17T20:23:03.426Z,10.10
2023-03-17T20:25:38.427Z,7.35
2023-03-17T20:28:12.931Z,8.30
2023-03-17T20:30:47.917Z,6.40
2023-03-17T20:33:21.791Z,5.90
2023-03-17T20:35:55.300Z,6.93
2023-03-17T20:38:28.876Z,8.30
2023-03-17T20:41:12.661Z,6.15
2023-03-17T20:43:47.532Z,8.15
2023-03-17T20:46:23.068Z,5.65
2023-03-17T20:48:58.791Z,5.25
2023-03-17T20:51:33.929Z,5.75
2023-03-17T20:54:08.639Z,5.85
2023-03-17T20:56:44.214Z,7.00
2023-03-17T20:59:17.947Z,5.97
2023-03-17T21:01:52.183Z,6.38
2023-03-17T21:04:26.037Z,7.13
2023-03-17T21:09:32.488Z,7.68
2023-03-17T21:12:07.434Z,5.95
2023-03-17T21:14:41.172Z,5.82
2023-03-17T21:17:14.963Z,6.95
2023-03-17T21:19:48.270Z,9.52
2023-03-17T21:22:21.737Z,7.30
2023-03-17T21:24:55.499Z,8.15
2023-03-17T21:30:04.429Z,5.38
2023-03-17T21:32:37.991Z,7.43
2023-03-17T21:35:11.590Z,8.68
2023-03-17T21:37:44.928Z,9.80
2023-03-17T21:40:19.033Z,6.38
2023-03-17T21:42:54.265Z,5.22
2023-03-17T21:45:27.881Z,7.28
2023-03-17T21:48:01.354Z,5.03
2023-03-17T21:50:35.149Z,7.93
2023-03-17T21:53:09.250Z,5.90
2023-03-17T21:55:42.797Z,6.72
2023-03-17T21:58:17.870Z,5.88
2023-03-17T22:00:51.919Z,7.20
2023-03-17T22:03:25.461Z,4.53
2023-03-17T22:05:58.861Z,6.80
2023-03-17T22:08:32.739Z,6.63
2023-03-17T22:11:08.606Z,7.00
2023-03-17T22:13:45.553Z,5.88
2023-03-17T22:16:19.734Z,6.68
2023-03-17T22:18:53.283Z,6.80
2023-03-17T22:21:28.794Z,6.15
2023-03-17T22:24:02.113Z,8.93
2023-03-17T22:26:35.487Z,6.07
2023-03-17T22:29:10.354Z,5.63
2023-03-17T22:31:43.762Z,5.88
2023-03-17T22:34:17.379Z,7.50
2023-03-17T22:36:51.365Z,6.13
2023-03-17T22:39:25.307Z,5.97
2023-03-17T22:41:58.621Z,5.63
2023-03-17T22:44:33.404Z,5.05
2023-03-17T22:47:08.119Z,5.20
2023-03-17T22:49:41.733Z,5.68
2023-03-17T22:52:15.309Z,6.63
2023-03-17T22:54:48.622Z,7.38
2023-03-17T22:57:21.937Z,6.70
2023-03-17T22:59:57.180Z,6.93
2023-03-17T23:02:30.732Z,5.85
2023-03-17T23:05:04.233Z,4.95
2023-03-17T23:07:49.529Z,5.50
2023-03-17T23:10:24.766Z,7.57
2023-03-17T23:12:58.244Z,6.97
2023-03-17T23:15:33.187Z,7.28
2023-03-17T23:18:07.232Z,7.85
2023-03-17T23:23:14.441Z,6.00
2023-03-17T23:25:48.059Z,6.68
2023-03-17T23:28:21.366Z,6.55
2023-03-17T23:30:56.289Z,5.18
2023-03-17T23:33:30.273Z,6.05
2023-03-17T23:36:03.639Z,6.88
2023-03-17T23:38:37.466Z,7.15
2023-03-17T23:43:44.888Z,7.85
2023-03-17T23:46:20.653Z,5.43
2023-03-17T23:48:54.188Z,7.25
2023-03-17T23:51:27.516Z,6.82
2023-03-17T23:54:00.849Z,6.55
2023-03-17T23:56:34.699Z,5.07
